עמוד ראשי
METAR-TAF:

METAR-TAF

שדות תעופה :

מניהיקי, איי קוק

קו רוחב: 10-22-50S, קו אורך: 160-59-59W, גובה: 2מטר

תצפית מזג אוויר נוכחית

הדו"ח נערך לפני 56דקות, בשעה 11:00 UTC
רוח 4קשר מכיוון מזרח/דרום-מזרח
טמפרטורת 29 צלסיוס
לחות 79%
לחץ 1012 hPa

METAR: NCMH 151100Z AUTO 12004KT //// ////// 29/25 Q1012

זמן: 01:56 (11:56 UTC)


TAF: חסר

תצפיות ותחזיות מזג אוויר לגבי יותר מ- 4,000 שדות תעופה ברחבי העולם. דוחות METAR ו- TAF.

התחנות הזמינות מסומנות בנקודות צהובות ואדומות על גבי המפה.

העבר את העכבר לנקודה הצבעונית על מנת לראות את שם התחנה.

לאחר מכן, לחץ כדי לראות את תוכן ואת תחזיות מזג האוויר.

כדי לשנות את המפה: לחץ על הכפתורים הירוקים עם הפלוס השחור כדי להתקרב; על הכפתור הירוק עם המקף כדי להתרחק; או בחיצים הירוקים למפות סמוכות.


METAR-TAF: